sensor_id;sensor_type;location;lat;lon;timestamp;pressure;altitude;pressure_sealevel;temperature;humidity
16595;BME280;8410;52.532;13.336;2022-11-15T00:01:09;101082.47;;;9.97;85.82
16595;BME280;8410;52.532;13.336;2022-11-15T00:03:36;101078.94;;;9.91;85.96
16595;BME280;8410;52.532;13.336;2022-11-15T00:06:05;101072.06;;;9.90;85.14
16595;BME280;8410;52.532;13.336;2022-11-15T00:08:33;101067.84;;;9.94;86.70
16595;BME280;8410;52.532;13.336;2022-11-15T00:11:02;101063.44;;;9.88;84.90
16595;BME280;8410;52.532;13.336;2022-11-15T00:13:30;101064.19;;;9.81;86.31
16595;BME280;8410;52.532;13.336;2022-11-15T00:15:59;101060.19;;;9.96;85.65
16595;BME280;8410;52.532;13.336;2022-11-15T00:18:27;101057.00;;;9.66;86.40
16595;BME280;8410;52.532;13.336;2022-11-15T00:20:55;101048.19;;;9.16;89.11
16595;BME280;8410;52.532;13.336;2022-11-15T00:23:24;101045.00;;;9.26;88.83
16595;BME280;8410;52.532;13.336;2022-11-15T00:25:58;101050.31;;;9.73;87.48
16595;BME280;8410;52.532;13.336;2022-11-15T00:28:26;101043.75;;;9.89;86.23
16595;BME280;8410;52.532;13.336;2022-11-15T00:30:53;101032.53;;;9.85;86.53
16595;BME280;8410;52.532;13.336;2022-11-15T00:33:21;101044.94;;;9.62;86.11
16595;BME280;8410;52.532;13.336;2022-11-15T00:35:49;101040.38;;;9.91;86.42
16595;BME280;8410;52.532;13.336;2022-11-15T00:38:16;101042.66;;;9.78;87.72
16595;BME280;8410;52.532;13.336;2022-11-15T00:40:45;101038.00;;;10.01;85.79
16595;BME280;8410;52.532;13.336;2022-11-15T00:43:12;101031.19;;;10.03;85.92
16595;BME280;8410;52.532;13.336;2022-11-15T00:45:40;101036.50;;;10.12;85.44
16595;BME280;8410;52.532;13.336;2022-11-15T00:48:09;101031.13;;;10.00;85.37
16595;BME280;8410;52.532;13.336;2022-11-15T00:50:36;101034.50;;;9.99;85.29
16595;BME280;8410;52.532;13.336;2022-11-15T00:53:04;101022.66;;;10.07;85.52
16595;BME280;8410;52.532;13.336;2022-11-15T00:55:31;101026.53;;;9.85;85.48
16595;BME280;8410;52.532;13.336;2022-11-15T00:58:00;101033.28;;;9.80;86.11
16595;BME280;8410;52.532;13.336;2022-11-15T01:00:28;101032.53;;;9.85;85.73
16595;BME280;8410;52.532;13.336;2022-11-15T01:02:55;101028.09;;;9.77;85.43
16595;BME280;8410;52.532;13.336;2022-11-15T01:05:23;101017.97;;;9.84;85.25
16595;BME280;8410;52.532;13.336;2022-11-15T01:07:51;101023.81;;;9.77;85.73
16595;BME280;8410;52.532;13.336;2022-11-15T01:10:19;101015.25;;;9.78;86.19
16595;BME280;8410;52.532;13.336;2022-11-15T01:12:46;101013.63;;;9.83;86.27
16595;BME280;8410;52.532;13.336;2022-11-15T01:15:16;101019.72;;;9.87;86.03
16595;BME280;8410;52.532;13.336;2022-11-15T01:17:43;101008.56;;;9.86;86.11
16595;BME280;8410;52.532;13.336;2022-11-15T01:20:11;101006.81;;;9.85;85.37
16595;BME280;8410;52.532;13.336;2022-11-15T01:22:39;101008.63;;;9.89;85.97
16595;BME280;8410;52.532;13.336;2022-11-15T01:25:06;100997.97;;;9.71;85.80
16595;BME280;8410;52.532;13.336;2022-11-15T01:27:33;100993.31;;;9.96;85.05
16595;BME280;8410;52.532;13.336;2022-11-15T01:30:01;100998.28;;;9.86;85.16
16595;BME280;8410;52.532;13.336;2022-11-15T01:32:30;100984.31;;;9.74;85.15
16595;BME280;8410;52.532;13.336;2022-11-15T01:34:57;100982.63;;;9.74;85.92
16595;BME280;8410;52.532;13.336;2022-11-15T01:37:25;100986.31;;;9.88;85.05
16595;BME280;8410;52.532;13.336;2022-11-15T01:39:52;100985.53;;;9.92;84.98
16595;BME280;8410;52.532;13.336;2022-11-15T01:42:20;100982.72;;;9.80;85.36
16595;BME280;8410;52.532;13.336;2022-11-15T01:44:48;100977.81;;;9.92;84.95
16595;BME280;8410;52.532;13.336;2022-11-15T01:47:19;100968.25;;;9.84;85.83
16595;BME280;8410;52.532;13.336;2022-11-15T01:49:53;100959.78;;;9.91;85.04
16595;BME280;8410;52.532;13.336;2022-11-15T01:52:24;100962.34;;;9.89;84.84
16595;BME280;8410;52.532;13.336;2022-11-15T01:54:55;100955.28;;;9.79;85.28
16595;BME280;8410;52.532;13.336;2022-11-15T01:57:23;100957.00;;;9.79;84.93
16595;BME280;8410;52.532;13.336;2022-11-15T01:59:51;100950.00;;;9.71;86.64
16595;BME280;8410;52.532;13.336;2022-11-15T02:02:18;100944.34;;;9.45;85.49
16595;BME280;8410;52.532;13.336;2022-11-15T02:04:46;100942.94;;;9.60;86.67
16595;BME280;8410;52.532;13.336;2022-11-15T02:07:17;100943.63;;;9.53;85.83
16595;BME280;8410;52.532;13.336;2022-11-15T02:09:45;100942.94;;;9.60;85.64
16595;BME280;8410;52.532;13.336;2022-11-15T02:12:14;100944.91;;;9.73;85.52
16595;BME280;8410;52.532;13.336;2022-11-15T02:14:47;100946.63;;;9.74;85.66
16595;BME280;8410;52.532;13.336;2022-11-15T02:17:27;100941.53;;;9.77;85.10
16595;BME280;8410;52.532;13.336;2022-11-15T02:20:25;100940.69;;;9.78;85.04
16595;BME280;8410;52.532;13.336;2022-11-15T02:23:09;100945.00;;;9.81;84.61
16595;BME280;8410;52.532;13.336;2022-11-15T02:25:52;100949.69;;;9.55;85.59
16595;BME280;8410;52.532;13.336;2022-11-15T02:28:41;100949.84;;;9.64;85.44
16595;BME280;8410;52.532;13.336;2022-11-15T02:31:18;100949.94;;;9.26;87.11
16595;BME280;8410;52.532;13.336;2022-11-15T02:33:56;100953.00;;;9.50;85.64
16595;BME280;8410;52.532;13.336;2022-11-15T02:36:34;100946.72;;;9.36;85.86
16595;BME280;8410;52.532;13.336;2022-11-15T02:39:07;100949.38;;;9.39;87.46
16595;BME280;8410;52.532;13.336;2022-11-15T02:41:42;100949.63;;;9.52;86.91
16595;BME280;8410;52.532;13.336;2022-11-15T02:44:17;100944.53;;;9.55;86.52
16595;BME280;8410;52.532;13.336;2022-11-15T02:46:51;100932.66;;;9.60;84.97
16595;BME280;8410;52.532;13.336;2022-11-15T02:49:39;100931.91;;;9.65;85.38
16595;BME280;8410;52.532;13.336;2022-11-15T02:52:07;100925.69;;;9.56;85.16
16595;BME280;8410;52.532;13.336;2022-11-15T02:54:35;100928.81;;;8.98;85.78
16595;BME280;8410;52.532;13.336;2022-11-15T02:57:05;100928.88;;;9.42;85.82
16595;BME280;8410;52.532;13.336;2022-11-15T03:02:42;100920.44;;;9.49;85.85
16595;BME280;8410;52.532;13.336;2022-11-15T03:05:17;100925.94;;;9.68;84.96
16595;BME280;8410;52.532;13.336;2022-11-15T03:07:51;100933.38;;;9.54;85.25
16595;BME280;8410;52.532;13.336;2022-11-15T03:10:33;100923.41;;;9.27;85.29
16595;BME280;8410;52.532;13.336;2022-11-15T03:13:08;100930.09;;;9.61;85.76
16595;BME280;8410;52.532;13.336;2022-11-15T03:15:44;100921.41;;;9.55;86.01
16595;BME280;8410;52.532;13.336;2022-11-15T03:18:20;100917.09;;;9.54;85.32
16595;BME280;8410;52.532;13.336;2022-11-15T03:20:49;100921.94;;;9.38;85.43
16595;BME280;8410;52.532;13.336;2022-11-15T03:23:17;100920.56;;;9.56;85.92
16595;BME280;8410;52.532;13.336;2022-11-15T03:25:47;100920.25;;;9.40;85.29
16595;BME280;8410;52.532;13.336;2022-11-15T03:28:20;100919.28;;;8.94;89.31
16595;BME280;8410;52.532;13.336;2022-11-15T03:30:50;100927.22;;;9.05;87.83
16595;BME280;8410;52.532;13.336;2022-11-15T03:33:21;100932.28;;;9.41;87.20
16595;BME280;8410;52.532;13.336;2022-11-15T03:35:49;100918.78;;;9.52;85.66
16595;BME280;8410;52.532;13.336;2022-11-15T03:38:21;100915.31;;;9.49;85.19
16595;BME280;8410;52.532;13.336;2022-11-15T03:40:59;100915.09;;;9.40;86.42
16595;BME280;8410;52.532;13.336;2022-11-15T03:43:30;100914.31;;;9.43;85.66
16595;BME280;8410;52.532;13.336;2022-11-15T03:46:02;100918.16;;;9.65;85.55
16595;BME280;8410;52.532;13.336;2022-11-15T03:48:37;100907.06;;;9.66;85.00
16595;BME280;8410;52.532;13.336;2022-11-15T03:51:07;100916.16;;;9.50;85.15
16595;BME280;8410;52.532;13.336;2022-11-15T03:53:35;100918.75;;;9.50;85.42
16595;BME280;8410;52.532;13.336;2022-11-15T03:56:03;100910.84;;;9.41;87.05
16595;BME280;8410;52.532;13.336;2022-11-15T03:58:30;100907.41;;;9.40;87.24
16595;BME280;8410;52.532;13.336;2022-11-15T04:00:57;100896.72;;;9.63;85.20
16595;BME280;8410;52.532;13.336;2022-11-15T04:03:26;100906.94;;;9.60;84.72
16595;BME280;8410;52.532;13.336;2022-11-15T04:05:55;100906.75;;;9.50;84.96
16595;BME280;8410;52.532;13.336;2022-11-15T04:08:22;100903.63;;;9.67;85.19
16595;BME280;8410;52.532;13.336;2022-11-15T04:10:49;100903.53;;;9.18;85.55
16595;BME280;8410;52.532;13.336;2022-11-15T04:13:17;100903.25;;;9.47;85.84
16595;BME280;8410;52.532;13.336;2022-11-15T04:15:44;100900.31;;;9.72;85.90
16595;BME280;8410;52.532;13.336;2022-11-15T04:18:12;100897.63;;;9.66;84.94
16595;BME280;8410;52.532;13.336;2022-11-15T04:20:39;100892.59;;;9.72;84.96
16595;BME280;8410;52.532;13.336;2022-11-15T04:23:25;100895.91;;;9.67;84.97
16595;BME280;8410;52.532;13.336;2022-11-15T04:26:12;100897.53;;;9.62;85.09
16595;BME280;8410;52.532;13.336;2022-11-15T04:28:41;100906.94;;;9.60;85.56
16595;BME280;8410;52.532;13.336;2022-11-15T04:31:23;100900.09;;;9.62;85.68
16595;BME280;8410;52.532;13.336;2022-11-15T04:33:50;100898.13;;;9.48;85.41
16595;BME280;8410;52.532;13.336;2022-11-15T04:36:18;100901.34;;;9.37;86.36
16595;BME280;8410;52.532;13.336;2022-11-15T04:39:05;100884.56;;;9.56;85.62
16595;BME280;8410;52.532;13.336;2022-11-15T04:41:32;100894.91;;;9.59;86.10
16595;BME280;8410;52.532;13.336;2022-11-15T04:44:00;100885.97;;;9.38;86.45
16595;BME280;8410;52.532;13.336;2022-11-15T04:46:27;100875.84;;;9.47;85.81
16595;BME280;8410;52.532;13.336;2022-11-15T04:48:55;100881.97;;;9.54;85.58
16595;BME280;8410;52.532;13.336;2022-11-15T04:51:24;100873.34;;;9.50;85.91
16595;BME280;8410;52.532;13.336;2022-11-15T04:53:52;100876.97;;;9.62;86.04
16595;BME280;8410;52.532;13.336;2022-11-15T04:56:21;100876.13;;;9.61;85.25
16595;BME280;8410;52.532;13.336;2022-11-15T04:58:48;100873.38;;;9.52;84.74
16595;BME280;8410;52.532;13.336;2022-11-15T05:01:16;100874.34;;;9.59;85.73
16595;BME280;8410;52.532;13.336;2022-11-15T05:03:44;100882.09;;;9.60;85.43
16595;BME280;8410;52.532;13.336;2022-11-15T05:06:30;100874.44;;;9.65;85.47
16595;BME280;8410;52.532;13.336;2022-11-15T05:08:57;100886.25;;;9.54;85.16
16595;BME280;8410;52.532;13.336;2022-11-15T05:11:26;100886.91;;;9.43;86.12
16595;BME280;8410;52.532;13.336;2022-11-15T05:13:54;100880.25;;;9.53;85.44
16595;BME280;8410;52.532;13.336;2022-11-15T05:16:22;100879.50;;;9.59;85.35
16595;BME280;8410;52.532;13.336;2022-11-15T05:18:50;100886.44;;;9.63;84.75
16595;BME280;8410;52.532;13.336;2022-11-15T05:21:20;100885.50;;;9.59;85.23
16595;BME280;8410;52.532;13.336;2022-11-15T05:23:47;100886.13;;;9.47;86.04
16595;BME280;8410;52.532;13.336;2022-11-15T05:26:16;100892.25;;;9.54;85.84
16595;BME280;8410;52.532;13.336;2022-11-15T05:28:45;100882.97;;;9.61;85.09
16595;BME280;8410;52.532;13.336;2022-11-15T05:31:14;100884.56;;;9.56;85.67
16595;BME280;8410;52.532;13.336;2022-11-15T05:33:43;100878.66;;;9.60;85.30
16595;BME280;8410;52.532;13.336;2022-11-15T05:36:14;100878.63;;;9.58;84.84
16595;BME280;8410;52.532;13.336;2022-11-15T05:38:44;100887.94;;;9.52;85.11
16595;BME280;8410;52.532;13.336;2022-11-15T05:41:13;100879.47;;;9.57;84.90
16595;BME280;8410;52.532;13.336;2022-11-15T05:43:42;100882.00;;;9.56;84.78
16595;BME280;8410;52.532;13.336;2022-11-15T05:46:13;100880.22;;;9.52;85.19
16595;BME280;8410;52.532;13.336;2022-11-15T05:48:43;100877.78;;;9.58;84.50
16595;BME280;8410;52.532;13.336;2022-11-15T05:51:13;100886.41;;;9.17;87.13
16595;BME280;8410;52.532;13.336;2022-11-15T05:53:42;100885.97;;;9.38;86.06
16595;BME280;8410;52.532;13.336;2022-11-15T05:56:10;100879.09;;;9.37;85.60
16595;BME280;8410;52.532;13.336;2022-11-15T05:58:38;100889.25;;;9.31;85.41
16595;BME280;8410;52.532;13.336;2022-11-15T06:01:06;100890.16;;;9.33;86.74
16595;BME280;8410;52.532;13.336;2022-11-15T06:03:35;100889.59;;;9.49;85.83
16595;BME280;8410;52.532;13.336;2022-11-15T06:06:02;100888.44;;;9.35;84.98
16595;BME280;8410;52.532;13.336;2022-11-15T06:08:30;100883.91;;;9.22;86.16
16595;BME280;8410;52.532;13.336;2022-11-15T06:11:03;100886.84;;;9.40;86.14
16595;BME280;8410;52.532;13.336;2022-11-15T06:13:31;100891.28;;;9.47;84.34
16595;BME280;8410;52.532;13.336;2022-11-15T06:15:59;100886.75;;;9.34;85.33
16595;BME280;8410;52.532;13.336;2022-11-15T06:18:27;100897.06;;;9.36;84.39
16595;BME280;8410;52.532;13.336;2022-11-15T06:20:58;100896.81;;;8.82;85.93
16595;BME280;8410;52.532;13.336;2022-11-15T06:23:27;100899.41;;;9.25;87.15
16595;BME280;8410;52.532;13.336;2022-11-15T06:25:57;100901.50;;;9.44;85.17
16595;BME280;8410;52.532;13.336;2022-11-15T06:28:27;100904.72;;;9.34;85.21
16595;BME280;8410;52.532;13.336;2022-11-15T06:30:55;100909.59;;;9.22;85.32
16595;BME280;8410;52.532;13.336;2022-11-15T06:33:23;100898.72;;;9.34;86.22
16595;BME280;8410;52.532;13.336;2022-11-15T06:35:50;100905.84;;;9.47;86.03
16595;BME280;8410;52.532;13.336;2022-11-15T06:38:19;100906.75;;;9.50;85.73
16595;BME280;8410;52.532;13.336;2022-11-15T06:40:47;100892.94;;;9.45;85.96
16595;BME280;8410;52.532;13.336;2022-11-15T06:43:14;100891.44;;;9.55;84.60
16595;BME280;8410;52.532;13.336;2022-11-15T06:45:42;100902.63;;;9.57;85.20
16595;BME280;8410;52.532;13.336;2022-11-15T06:48:10;100906.75;;;9.50;85.38
16595;BME280;8410;52.532;13.336;2022-11-15T06:50:37;100898.22;;;9.52;84.98
16595;BME280;8410;52.532;13.336;2022-11-15T06:53:05;100910.38;;;9.62;85.53
16595;BME280;8410;52.532;13.336;2022-11-15T06:55:33;100913.09;;;9.68;84.58
16595;BME280;8410;52.532;13.336;2022-11-15T06:58:01;100907.94;;;9.68;85.22
16595;BME280;8410;52.532;13.336;2022-11-15T07:00:28;100909.72;;;9.70;84.91
16595;BME280;8410;52.532;13.336;2022-11-15T07:02:59;100909.00;;;9.79;84.54
16595;BME280;8410;52.532;13.336;2022-11-15T07:05:27;100916.47;;;9.65;85.07
16595;BME280;8410;52.532;13.336;2022-11-15T07:07:55;100913.81;;;9.61;85.01
16595;BME280;8410;52.532;13.336;2022-11-15T07:10:24;100908.81;;;9.70;85.32
16595;BME280;8410;52.532;13.336;2022-11-15T07:12:53;100919.91;;;9.67;84.84
16595;BME280;8410;52.532;13.336;2022-11-15T07:15:23;100911.38;;;9.68;84.41
16595;BME280;8410;52.532;13.336;2022-11-15T07:17:51;100922.88;;;9.87;84.89
16595;BME280;8410;52.532;13.336;2022-11-15T07:20:18;100930.59;;;9.89;84.67
16595;BME280;8410;52.532;13.336;2022-11-15T07:22:46;100930.69;;;9.92;84.32
16595;BME280;8410;52.532;13.336;2022-11-15T07:25:13;100926.44;;;9.96;84.34
16595;BME280;8410;52.532;13.336;2022-11-15T07:27:41;100929.47;;;9.73;83.49
16595;BME280;8410;52.532;13.336;2022-11-15T07:30:12;100927.97;;;9.86;84.68
16595;BME280;8410;52.532;13.336;2022-11-15T07:32:41;100923.88;;;9.96;84.15
16595;BME280;8410;52.532;13.336;2022-11-15T07:35:08;100923.41;;;10.18;83.60
16595;BME280;8410;52.532;13.336;2022-11-15T07:37:36;100919.63;;;9.99;84.39
16595;BME280;8410;52.532;13.336;2022-11-15T07:40:04;100924.34;;;10.22;83.79
16595;BME280;8410;52.532;13.336;2022-11-15T07:42:31;100927.72;;;10.21;83.49
16595;BME280;8410;52.532;13.336;2022-11-15T07:45:18;100923.09;;;10.00;83.74
16595;BME280;8410;52.532;13.336;2022-11-15T07:47:45;100921.34;;;9.99;84.90
16595;BME280;8410;52.532;13.336;2022-11-15T07:50:13;100918.44;;;10.27;84.25
16595;BME280;8410;52.532;13.336;2022-11-15T07:52:41;100918.31;;;10.21;83.62
16595;BME280;8410;52.532;13.336;2022-11-15T07:55:08;100919.78;;;10.07;83.84
16595;BME280;8410;52.532;13.336;2022-11-15T07:57:36;100916.63;;;10.23;83.21
16595;BME280;8410;52.532;13.336;2022-11-15T08:00:05;100918.50;;;10.30;82.95
16595;BME280;8410;52.532;13.336;2022-11-15T08:02:34;100905.50;;;10.24;83.59
16595;BME280;8410;52.532;13.336;2022-11-15T08:05:02;100907.34;;;9.81;84.14
16595;BME280;8410;52.532;13.336;2022-11-15T08:07:30;100908.84;;;10.20;84.34
16595;BME280;8410;52.532;13.336;2022-11-15T08:09:58;100905.75;;;10.40;84.10
16595;BME280;8410;52.532;13.336;2022-11-15T08:12:27;100905.19;;;10.56;83.50
16595;BME280;8410;52.532;13.336;2022-11-15T08:14:55;100905.22;;;10.60;83.03
16595;BME280;8410;52.532;13.336;2022-11-15T08:17:23;100904.41;;;10.62;83.03
16595;BME280;8410;52.532;13.336;2022-11-15T08:19:52;100905.31;;;10.65;83.25
16595;BME280;8410;52.532;13.336;2022-11-15T08:22:20;100904.38;;;10.60;84.16
16595;BME280;8410;52.532;13.336;2022-11-15T08:24:48;100908.91;;;10.76;82.75
16595;BME280;8410;52.532;13.336;2022-11-15T08:27:15;100905.44;;;10.73;83.53
16595;BME280;8410;52.532;13.336;2022-11-15T08:29:43;100893.38;;;10.70;82.71
16595;BME280;8410;52.532;13.336;2022-11-15T08:32:11;100894.47;;;10.88;82.28
16595;BME280;8410;52.532;13.336;2022-11-15T08:34:39;100902.09;;;10.81;82.88
16595;BME280;8410;52.532;13.336;2022-11-15T08:37:07;100901.53;;;11.02;81.90
16595;BME280;8410;52.532;13.336;2022-11-15T08:39:35;100901.56;;;11.06;82.74
16595;BME280;8410;52.532;13.336;2022-11-15T08:42:03;100903.16;;;10.94;81.72
16595;BME280;8410;52.532;13.336;2022-11-15T08:44:30;100904.97;;;11.01;81.93
16595;BME280;8410;52.532;13.336;2022-11-15T08:46:57;100900.00;;;11.15;82.48
16595;BME280;8410;52.532;13.336;2022-11-15T08:49:25;100903.44;;;11.16;82.05
16595;BME280;8410;52.532;13.336;2022-11-15T08:51:52;100902.28;;;10.94;81.87
16595;BME280;8410;52.532;13.336;2022-11-15T08:54:21;100903.22;;;10.99;82.63
16595;BME280;8410;52.532;13.336;2022-11-15T08:56:48;100910.44;;;11.27;81.85
16595;BME280;8410;52.532;13.336;2022-11-15T08:59:16;100901.91;;;11.32;81.88
16595;BME280;8410;52.532;13.336;2022-11-15T09:01:43;100914.78;;;11.32;80.82
16595;BME280;8410;52.532;13.336;2022-11-15T09:04:11;100906.34;;;11.45;81.54
16595;BME280;8410;52.532;13.336;2022-11-15T09:06:38;100904.53;;;11.36;88.03
16595;BME280;8410;52.532;13.336;2022-11-15T09:09:11;100890.00;;;12.30;81.56
16595;BME280;8410;52.532;13.336;2022-11-15T09:11:39;100883.22;;;12.44;84.72
16595;BME280;8410;52.532;13.336;2022-11-15T09:14:07;100887.66;;;12.67;82.25
16595;BME280;8410;52.532;13.336;2022-11-15T09:16:34;100887.88;;;13.07;83.17
16595;BME280;8410;52.532;13.336;2022-11-15T09:19:02;100880.34;;;13.59;84.90
16595;BME280;8410;52.532;13.336;2022-11-15T09:21:36;100883.84;;;13.98;74.14
16595;BME280;8410;52.532;13.336;2022-11-15T09:24:04;100880.41;;;14.20;75.15
16595;BME280;8410;52.532;13.336;2022-11-15T09:26:32;100877.81;;;14.36;76.83
16595;BME280;8410;52.532;13.336;2022-11-15T09:29:01;100885.59;;;14.23;75.26
16595;BME280;8410;52.532;13.336;2022-11-15T09:31:28;100878.47;;;15.24;74.27
16595;BME280;8410;52.532;13.336;2022-11-15T09:33:56;100883.88;;;14.53;72.94
16595;BME280;8410;52.532;13.336;2022-11-15T09:36:24;100890.72;;;14.82;72.46
16595;BME280;8410;52.532;13.336;2022-11-15T09:38:51;100888.19;;;14.20;74.69
16595;BME280;8410;52.532;13.336;2022-11-15T09:41:48;100888.13;;;14.82;73.00
16595;BME280;8410;52.532;13.336;2022-11-15T09:44:41;100891.59;;;14.79;72.71
16595;BME280;8410;52.532;13.336;2022-11-15T09:47:27;100883.81;;;14.87;72.32
16595;BME280;8410;52.532;13.336;2022-11-15T09:50:00;100881.09;;;15.14;71.37
16595;BME280;8410;52.532;13.336;2022-11-15T09:52:29;100884.66;;;14.78;69.28
16595;BME280;8410;52.532;13.336;2022-11-15T09:54:56;100883.00;;;13.99;71.83
16595;BME280;8410;52.532;13.336;2022-11-15T09:57:30;100874.31;;;13.51;73.41
16595;BME280;8410;52.532;13.336;2022-11-15T10:00:06;100879.31;;;13.15;75.78
16595;BME280;8410;52.532;13.336;2022-11-15T10:03:06;100880.22;;;13.25;75.19
16595;BME280;8410;52.532;13.336;2022-11-15T10:05:37;100879.31;;;13.23;75.36
16595;BME280;8410;52.532;13.336;2022-11-15T10:08:15;100873.31;;;13.22;74.52
16595;BME280;8410;52.532;13.336;2022-11-15T10:10:50;100869.84;;;13.13;75.45
16595;BME280;8410;52.532;13.336;2022-11-15T10:13:41;100864.63;;;13.08;75.32
16595;BME280;8410;52.532;13.336;2022-11-15T10:19:21;100848.97;;;12.73;77.90
16595;BME280;8410;52.532;13.336;2022-11-15T10:21:59;100850.81;;;12.98;75.89
16595;BME280;8410;52.532;13.336;2022-11-15T10:24:29;100835.38;;;13.20;76.06
16595;BME280;8410;52.532;13.336;2022-11-15T10:27:01;100839.72;;;13.24;75.89
16595;BME280;8410;52.532;13.336;2022-11-15T10:29:28;100837.97;;;13.24;75.79
16595;BME280;8410;52.532;13.336;2022-11-15T10:31:56;100832.75;;;13.12;75.00
16595;BME280;8410;52.532;13.336;2022-11-15T10:34:25;100824.25;;;13.29;76.33
16595;BME280;8410;52.532;13.336;2022-11-15T10:36:57;100820.00;;;13.54;75.00
16595;BME280;8410;52.532;13.336;2022-11-15T10:39:26;100815.66;;;13.57;74.95
16595;BME280;8410;52.532;13.336;2022-11-15T10:41:54;100815.69;;;13.71;74.02
16595;BME280;8410;52.532;13.336;2022-11-15T10:44:26;100813.00;;;13.25;75.93
16595;BME280;8410;52.532;13.336;2022-11-15T10:50:26;100806.19;;;13.45;75.16
16595;BME280;8410;52.532;13.336;2022-11-15T10:52:54;100801.03;;;13.81;74.51
16595;BME280;8410;52.532;13.336;2022-11-15T10:55:24;100794.97;;;13.57;75.54
16595;BME280;8410;52.532;13.336;2022-11-15T10:57:55;100796.72;;;13.86;74.63
16595;BME280;8410;52.532;13.336;2022-11-15T11:00:32;100799.31;;;13.78;73.54
16595;BME280;8410;52.532;13.336;2022-11-15T11:03:02;100793.28;;;13.72;75.67
16595;BME280;8410;52.532;13.336;2022-11-15T11:05:32;100792.41;;;13.93;73.92
16595;BME280;8410;52.532;13.336;2022-11-15T11:08:21;100781.19;;;14.07;73.76
16595;BME280;8410;52.532;13.336;2022-11-15T11:10:52;100771.69;;;13.68;74.98
16595;BME280;8410;52.532;13.336;2022-11-15T11:13:29;100771.69;;;13.43;76.66
16595;BME280;8410;52.532;13.336;2022-11-15T11:16:07;100767.41;;;13.93;75.14
16595;BME280;8410;52.532;13.336;2022-11-15T11:18:46;100767.34;;;14.24;74.25
16595;BME280;8410;52.532;13.336;2022-11-15T11:21:24;100761.28;;;14.39;73.77
16595;BME280;8410;52.532;13.336;2022-11-15T11:24:06;100759.53;;;14.34;74.00
16595;BME280;8410;52.532;13.336;2022-11-15T11:26:41;100762.97;;;14.43;73.27
16595;BME280;8410;52.532;13.336;2022-11-15T11:29:22;100758.72;;;14.28;73.26
16595;BME280;8410;52.532;13.336;2022-11-15T11:31:59;100755.22;;;14.41;73.24
16595;BME280;8410;52.532;13.336;2022-11-15T11:34:39;100767.34;;;14.13;74.45
16595;BME280;8410;52.532;13.336;2022-11-15T11:37:15;100771.66;;;14.31;74.46
16595;BME280;8410;52.532;13.336;2022-11-15T11:39:53;100757.81;;;14.40;73.94
16595;BME280;8410;52.532;13.336;2022-11-15T11:42:29;100758.63;;;14.48;74.17
16595;BME280;8410;52.532;13.336;2022-11-15T11:45:05;100753.53;;;14.31;74.58
16595;BME280;8410;52.532;13.336;2022-11-15T11:47:40;100757.88;;;14.15;74.08
16595;BME280;8410;52.532;13.336;2022-11-15T11:50:13;100755.22;;;14.38;73.73
16595;BME280;8410;52.532;13.336;2022-11-15T11:52:44;100755.22;;;14.35;74.38
16595;BME280;8410;52.532;13.336;2022-11-15T11:55:21;100744.81;;;14.46;74.22
16595;BME280;8410;52.532;13.336;2022-11-15T11:57:56;100744.03;;;14.28;75.29
16595;BME280;8410;52.532;13.336;2022-11-15T12:00:26;100737.09;;;14.33;74.46
16595;BME280;8410;52.532;13.336;2022-11-15T12:03:03;100731.88;;;14.49;73.75
16595;BME280;8410;52.532;13.336;2022-11-15T12:05:35;100723.25;;;14.47;73.30
16595;BME280;8410;52.532;13.336;2022-11-15T12:08:19;100721.59;;;14.27;74.59
16595;BME280;8410;52.532;13.336;2022-11-15T12:10:53;100723.25;;;14.45;74.62
16595;BME280;8410;52.532;13.336;2022-11-15T12:13:26;100729.41;;;14.17;74.75
16595;BME280;8410;52.532;13.336;2022-11-15T12:16:05;100720.66;;;14.58;74.01
16595;BME280;8410;52.532;13.336;2022-11-15T12:18:36;100719.75;;;14.63;73.80
16595;BME280;8410;52.532;13.336;2022-11-15T12:21:16;100716.38;;;14.40;74.87
16595;BME280;8410;52.532;13.336;2022-11-15T12:23:59;100715.34;;;14.81;73.11
16595;BME280;8410;52.532;13.336;2022-11-15T12:26:33;100710.06;;;14.97;72.90
16595;BME280;8410;52.532;13.336;2022-11-15T12:29:09;100711.97;;;14.62;74.27
16595;BME280;8410;52.532;13.336;2022-11-15T12:31:42;100703.25;;;14.80;74.15
16595;BME280;8410;52.532;13.336;2022-11-15T12:34:30;100709.34;;;14.75;72.76
16595;BME280;8410;52.532;13.336;2022-11-15T12:40:34;100704.91;;;14.93;73.34
16595;BME280;8410;52.532;13.336;2022-11-15T12:45:46;100686.75;;;14.96;73.03
16595;BME280;8410;52.532;13.336;2022-11-15T12:54:52;100669.31;;;15.15;72.82
16595;BME280;8410;52.532;13.336;2022-11-15T12:57:40;100669.53;;;14.83;74.07
16595;BME280;8410;52.532;13.336;2022-11-15T13:00:36;100672.81;;;15.09;73.60
16595;BME280;8410;52.532;13.336;2022-11-15T13:03:24;100678.16;;;14.89;73.72
16595;BME280;8410;52.532;13.336;2022-11-15T13:05:58;100671.28;;;14.84;74.28
16595;BME280;8410;52.532;13.336;2022-11-15T13:08:40;100671.25;;;14.90;74.52
16595;BME280;8410;52.532;13.336;2022-11-15T13:11:47;100671.19;;;14.96;74.24
16595;BME280;8410;52.532;13.336;2022-11-15T13:14:48;100670.22;;;15.09;73.11
16595;BME280;8410;52.532;13.336;2022-11-15T13:17:40;100666.72;;;15.19;73.24
16595;BME280;8410;52.532;13.336;2022-11-15T13:20:24;100661.53;;;15.18;72.81
16595;BME280;8410;52.532;13.336;2022-11-15T13:23:00;100671.06;;;15.14;72.90
16595;BME280;8410;52.532;13.336;2022-11-15T13:25:45;100663.38;;;15.04;72.60
16595;BME280;8410;52.532;13.336;2022-11-15T13:28:22;100664.03;;;15.32;72.07
16595;BME280;8410;52.532;13.336;2022-11-15T13:30:55;100655.16;;;15.53;71.57
16595;BME280;8410;52.532;13.336;2022-11-15T13:33:25;100657.09;;;15.31;72.48
16595;BME280;8410;52.532;13.336;2022-11-15T13:36:03;100657.28;;;15.11;72.80
16595;BME280;8410;52.532;13.336;2022-11-15T13:38:33;100662.53;;;15.00;73.19
16595;BME280;8410;52.532;13.336;2022-11-15T13:41:13;100660.72;;;15.10;73.73